»·PEaware :: AAL123 KGEG-KBFI

AAL123 :: KGEG-KBFI

FLIGHT INFORMATION

Flight Status: Arrived
Operator:
American Airlines
More flights by this operator :: More flights under this callsign
Pilot: Alfonso U. (14209)
Aircraft: BOEING 737-800
(B738)
More flights by this aircraft type
Origin: KGEG Spokane Intl
United States
Destination: KBFI Boeing Field/King Co Intl
United States
More flights between these airports :: More routes between these airports
Route: GEG6 TEMPL GLASR1
File this flight plan on PilotEdge
Remarks:
Altitude:
(Current/Filed)
30,000ft
Speed:
(Current/Filed)
250kts
Departed: 30-Jul-20 09:30 AM
Arrived: 30-Jul-20 10:24 AM
Distance/Time
Traveled:
193nm/0:54
Distance/Time
To Go:
Arrived

Flight Plot

Page will automatically refresh every two minutes.


Map Options




Map Legend


Flown Route
Filed Route
Departure Airport
Arrival Airport
Navaid (VOR, NDB)
Fix

Horizontal Profiles

Position Reports

Time Latitude Longitude Heading Altitude Ground
Speed
30-Jul-20 09:07 47.623962 -117.535877 1 2393ft 0kts
30-Jul-20 09:08 47.623962 -117.535877 1 2393ft 0kts
30-Jul-20 09:09 47.623962 -117.535877 1 2393ft 0kts
30-Jul-20 09:10 47.623962 -117.535877 1 2393ft 0kts
30-Jul-20 09:11 47.623962 -117.535877 1 2393ft 0kts
30-Jul-20 09:12 47.623962 -117.535877 1 2393ft 0kts
30-Jul-20 09:13 47.623962 -117.535877 1 2393ft 0kts
30-Jul-20 09:14 47.623962 -117.535877 1 2393ft 0kts
30-Jul-20 09:15 47.623830 -117.535966 10 2393ft 2kts
30-Jul-20 09:16 47.623491 -117.536405 45 2393ft 0kts
30-Jul-20 09:17 47.623491 -117.536405 45 2393ft 0kts
30-Jul-20 09:18 47.623491 -117.536405 45 2393ft 0kts
30-Jul-20 09:19 47.623491 -117.536405 45 2393ft 0kts
30-Jul-20 09:20 47.623495 -117.536397 48 2393ft 0kts
30-Jul-20 09:21 47.622290 -117.535736 226 2393ft 12kts
30-Jul-20 09:22 47.618196 -117.541882 225 2393ft 23kts
30-Jul-20 09:23 47.612795 -117.550025 225 2393ft 28kts
30-Jul-20 09:25 47.611221 -117.551501 142 2393ft 9kts
30-Jul-20 09:26 47.610899 -117.551028 133 2393ft 0kts
30-Jul-20 09:27 47.610899 -117.551028 133 2393ft 0kts
30-Jul-20 09:28 47.610899 -117.551028 133 2393ft 0kts
30-Jul-20 09:29 47.610611 -117.549286 42 2393ft 15kts
30-Jul-20 09:30 47.632945 -117.515807 44 3317ft 172kts
30-Jul-20 09:31 47.679930 -117.468099 31 5249ft 253kts
30-Jul-20 09:32 47.733410 -117.394575 43 8451ft 280kts
30-Jul-20 09:33 47.791325 -117.310222 44 11318ft 315kts
30-Jul-20 09:34 47.843028 -117.235314 39 12068ft 353kts
30-Jul-20 09:37 47.926939 -117.402965 263 17586ft 383kts
30-Jul-20 09:38 47.911803 -117.562644 263 20093ft 394kts
30-Jul-20 09:39 47.896356 -117.725522 263 22346ft 404kts
30-Jul-20 09:40 47.880443 -117.893264 263 24402ft 413kts
30-Jul-20 09:41 47.864183 -118.064707 263 26242ft 422kts
30-Jul-20 09:42 47.847592 -118.239723 263 27924ft 430kts
30-Jul-20 09:42 47.833571 -118.387732 262 29176ft 437kts
30-Jul-20 09:43 47.816431 -118.568768 262 30131ft 446kts
30-Jul-20 09:44 47.799188 -118.750740 262 30069ft 443kts
30-Jul-20 09:46 47.780153 -118.964463 261 30046ft 453kts
30-Jul-20 09:46 47.765761 -119.118161 260 30047ft 451kts
30-Jul-20 09:47 47.747633 -119.302783 260 30054ft 451kts
30-Jul-20 09:49 47.728007 -119.518233 269 30049ft 453kts
30-Jul-20 09:49 47.741939 -119.673344 276 30054ft 455kts
30-Jul-20 09:50 47.758792 -119.858378 275 30060ft 454kts
30-Jul-20 09:51 47.773676 -120.041748 275 30075ft 441kts
30-Jul-20 09:52 47.787443 -120.224611 274 30072ft 446kts
30-Jul-20 09:53 47.800407 -120.404174 274 28387ft 429kts
30-Jul-20 09:54 47.812873 -120.576856 274 26040ft 414kts
30-Jul-20 09:55 47.824745 -120.744058 273 23725ft 401kts
30-Jul-20 09:56 47.835714 -120.904583 274 21468ft 389kts
30-Jul-20 09:57 47.848068 -121.061337 275 19229ft 379kts
30-Jul-20 09:58 47.861272 -121.213729 274 17029ft 368kts
30-Jul-20 09:59 47.871499 -121.363163 271 14829ft 356kts
30-Jul-20 10:00 47.878291 -121.507647 270 12681ft 345kts
30-Jul-20 10:01 47.883958 -121.645362 267 11415ft 310kts
30-Jul-20 10:02 47.851714 -121.749809 221 11024ft 273kts
30-Jul-20 10:03 47.795787 -121.826423 222 11011ft 275kts
30-Jul-20 10:04 47.750835 -121.911716 211 10074ft 260kts
30-Jul-20 10:05 47.679118 -121.926530 185 8708ft 263kts
30-Jul-20 10:06 47.606242 -121.930915 185 7383ft 263kts
30-Jul-20 10:07 47.533234 -121.934929 185 6086ft 263kts
30-Jul-20 10:08 47.460370 -121.939038 185 5784ft 265kts
30-Jul-20 10:09 47.396954 -121.975361 233 4823ft 251kts
30-Jul-20 10:10 47.355902 -122.058750 253 3538ft 248kts
30-Jul-20 10:11 47.350809 -122.153207 260 3023ft 219kts
30-Jul-20 10:12 47.378014 -122.205859 356 2974ft 172kts
30-Jul-20 10:13 47.420916 -122.215809 302 2317ft 156kts
30-Jul-20 10:14 47.450896 -122.262123 320 1499ft 157kts
30-Jul-20 10:15 47.484396 -122.303769 321 752ft 157kts
30-Jul-20 10:16 47.519657 -122.338876 25 960ft 190kts
30-Jul-20 10:17 47.538599 -122.274833 118 1955ft 178kts
30-Jul-20 10:18 47.490850 -122.236913 160 2034ft 196kts
30-Jul-20 10:19 47.446291 -122.208062 191 2055ft 171kts
30-Jul-20 10:20 47.446677 -122.254846 335 2013ft 162kts
30-Jul-20 10:21 47.488530 -122.263911 324 637ft 147kts
30-Jul-20 10:22 47.523673 -122.297086 331 38ft 146kts
30-Jul-20 10:23 47.540159 -122.311247 301 30ft 22kts

Navigation Log

Ident Type
Flight plan parsing failed, navigation log unavailable